sensor_id;sensor_type;location;lat;lon;timestamp;temperature;humidity
31991;DHT22;18508;49.386;8.370;2023-05-27T00:01:06;14.00;1.00
31991;DHT22;18508;49.386;8.370;2023-05-27T00:03:35;14.00;1.00
31991;DHT22;18508;49.386;8.370;2023-05-27T00:06:03;14.00;1.00
31991;DHT22;18508;49.386;8.370;2023-05-27T00:08:31;13.90;1.00
31991;DHT22;18508;49.386;8.370;2023-05-27T00:10:59;13.90;1.00
31991;DHT22;18508;49.386;8.370;2023-05-27T00:13:29;13.80;1.00
31991;DHT22;18508;49.386;8.370;2023-05-27T00:15:57;13.80;1.00
31991;DHT22;18508;49.386;8.370;2023-05-27T00:18:26;13.80;1.00
31991;DHT22;18508;49.386;8.370;2023-05-27T00:20:54;13.70;1.00
31991;DHT22;18508;49.386;8.370;2023-05-27T00:23:22;13.60;1.00
31991;DHT22;18508;49.386;8.370;2023-05-27T00:25:50;13.60;2.20
31991;DHT22;18508;49.386;8.370;2023-05-27T00:28:19;13.50;13.90
31991;DHT22;18508;49.386;8.370;2023-05-27T00:30:49;13.50;22.20
31991;DHT22;18508;49.386;8.370;2023-05-27T00:33:17;13.40;43.50
31991;DHT22;18508;49.386;8.370;2023-05-27T00:35:45;13.40;58.20
31991;DHT22;18508;49.386;8.370;2023-05-27T00:40:43;13.20;91.30
31991;DHT22;18508;49.386;8.370;2023-05-27T00:43:11;13.20;92.90
31991;DHT22;18508;49.386;8.370;2023-05-27T00:45:39;13.20;99.90
31991;DHT22;18508;49.386;8.370;2023-05-27T00:48:09;13.10;99.90
31991;DHT22;18508;49.386;8.370;2023-05-27T00:50:38;13.10;99.90
31991;DHT22;18508;49.386;8.370;2023-05-27T00:53:06;13.00;99.90
31991;DHT22;18508;49.386;8.370;2023-05-27T00:55:35;13.00;99.90
31991;DHT22;18508;49.386;8.370;2023-05-27T00:58:04;13.00;99.90
31991;DHT22;18508;49.386;8.370;2023-05-27T01:00:36;12.90;99.90
31991;DHT22;18508;49.386;8.370;2023-05-27T01:03:06;12.80;99.90
31991;DHT22;18508;49.386;8.370;2023-05-27T01:05:36;12.80;99.90
31991;DHT22;18508;49.386;8.370;2023-05-27T01:08:11;12.70;99.90
31991;DHT22;18508;49.386;8.370;2023-05-27T01:10:49;12.70;99.90
31991;DHT22;18508;49.386;8.370;2023-05-27T01:13:25;12.60;99.90
31991;DHT22;18508;49.386;8.370;2023-05-27T01:15:58;12.60;99.90
31991;DHT22;18508;49.386;8.370;2023-05-27T01:18:28;12.60;99.90
31991;DHT22;18508;49.386;8.370;2023-05-27T01:21:08;12.50;99.90
31991;DHT22;18508;49.386;8.370;2023-05-27T01:23:41;12.50;1.00
31991;DHT22;18508;49.386;8.370;2023-05-27T01:26:09;12.50;1.30
31991;DHT22;18508;49.386;8.370;2023-05-27T01:28:37;12.40;99.90
31991;DHT22;18508;49.386;8.370;2023-05-27T01:31:10;12.40;99.90
31991;DHT22;18508;49.386;8.370;2023-05-27T01:33:42;12.40;1.00
31991;DHT22;18508;49.386;8.370;2023-05-27T01:36:14;12.30;99.90
31991;DHT22;18508;49.386;8.370;2023-05-27T01:38:46;12.30;99.90
31991;DHT22;18508;49.386;8.370;2023-05-27T01:41:15;12.30;99.90
31991;DHT22;18508;49.386;8.370;2023-05-27T01:43:44;12.30;1.00
31991;DHT22;18508;49.386;8.370;2023-05-27T01:46:12;12.30;99.90
31991;DHT22;18508;49.386;8.370;2023-05-27T01:48:41;12.20;49.50
31991;DHT22;18508;49.386;8.370;2023-05-27T01:51:10;12.20;99.90
31991;DHT22;18508;49.386;8.370;2023-05-27T01:53:38;12.10;1.00
31991;DHT22;18508;49.386;8.370;2023-05-27T01:56:09;12.10;99.90
31991;DHT22;18508;49.386;8.370;2023-05-27T01:58:39;12.00;7.60
31991;DHT22;18508;49.386;8.370;2023-05-27T02:01:07;12.00;1.00
31991;DHT22;18508;49.386;8.370;2023-05-27T02:03:35;12.00;1.00
31991;DHT22;18508;49.386;8.370;2023-05-27T02:06:03;12.00;99.90
31991;DHT22;18508;49.386;8.370;2023-05-27T02:08:32;11.90;99.90
31991;DHT22;18508;49.386;8.370;2023-05-27T02:11:00;11.90;99.90
31991;DHT22;18508;49.386;8.370;2023-05-27T02:13:30;11.90;99.90
31991;DHT22;18508;49.386;8.370;2023-05-27T02:15:59;11.80;1.00
31991;DHT22;18508;49.386;8.370;2023-05-27T02:18:27;11.80;99.90
31991;DHT22;18508;49.386;8.370;2023-05-27T02:21:01;11.80;99.90
31991;DHT22;18508;49.386;8.370;2023-05-27T02:23:32;11.70;99.90
31991;DHT22;18508;49.386;8.370;2023-05-27T02:26:01;11.70;99.90
31991;DHT22;18508;49.386;8.370;2023-05-27T02:28:30;11.70;99.90
31991;DHT22;18508;49.386;8.370;2023-05-27T02:30:59;11.70;99.90
31991;DHT22;18508;49.386;8.370;2023-05-27T02:33:28;11.60;1.00
31991;DHT22;18508;49.386;8.370;2023-05-27T02:35:57;11.60;1.00
31991;DHT22;18508;49.386;8.370;2023-05-27T02:38:25;11.60;1.00
31991;DHT22;18508;49.386;8.370;2023-05-27T02:40:53;11.60;1.00
31991;DHT22;18508;49.386;8.370;2023-05-27T02:43:22;11.50;1.00
31991;DHT22;18508;49.386;8.370;2023-05-27T02:45:53;11.50;1.00
31991;DHT22;18508;49.386;8.370;2023-05-27T02:48:21;11.50;1.00
31991;DHT22;18508;49.386;8.370;2023-05-27T02:50:50;11.50;1.00
31991;DHT22;18508;49.386;8.370;2023-05-27T02:53:18;11.50;1.00
31991;DHT22;18508;49.386;8.370;2023-05-27T02:55:47;11.40;1.00
31991;DHT22;18508;49.386;8.370;2023-05-27T02:58:16;11.40;1.00
31991;DHT22;18508;49.386;8.370;2023-05-27T03:00:44;11.40;1.00
31991;DHT22;18508;49.386;8.370;2023-05-27T03:03:14;11.40;1.00
31991;DHT22;18508;49.386;8.370;2023-05-27T03:05:42;11.30;1.00
31991;DHT22;18508;49.386;8.370;2023-05-27T03:08:10;11.30;1.00
31991;DHT22;18508;49.386;8.370;2023-05-27T03:10:39;11.30;1.00
31991;DHT22;18508;49.386;8.370;2023-05-27T03:13:07;11.20;1.00
31991;DHT22;18508;49.386;8.370;2023-05-27T03:15:36;11.20;1.00
31991;DHT22;18508;49.386;8.370;2023-05-27T03:18:05;11.10;1.00
31991;DHT22;18508;49.386;8.370;2023-05-27T03:20:34;11.10;1.00
31991;DHT22;18508;49.386;8.370;2023-05-27T03:23:02;11.10;1.00
31991;DHT22;18508;49.386;8.370;2023-05-27T03:25:31;11.10;1.00
31991;DHT22;18508;49.386;8.370;2023-05-27T03:28:00;11.00;1.00
31991;DHT22;18508;49.386;8.370;2023-05-27T03:30:28;11.00;1.00
31991;DHT22;18508;49.386;8.370;2023-05-27T03:32:56;11.00;1.00
31991;DHT22;18508;49.386;8.370;2023-05-27T03:35:25;10.90;1.00
31991;DHT22;18508;49.386;8.370;2023-05-27T03:37:55;11.00;1.00
31991;DHT22;18508;49.386;8.370;2023-05-27T03:40:23;10.90;1.00
31991;DHT22;18508;49.386;8.370;2023-05-27T03:42:53;10.90;1.00
31991;DHT22;18508;49.386;8.370;2023-05-27T03:45:21;10.90;1.00
31991;DHT22;18508;49.386;8.370;2023-05-27T03:47:49;10.90;1.00
31991;DHT22;18508;49.386;8.370;2023-05-27T03:50:18;10.90;1.00
31991;DHT22;18508;49.386;8.370;2023-05-27T03:52:46;10.90;1.00
31991;DHT22;18508;49.386;8.370;2023-05-27T03:55:15;10.90;1.00
31991;DHT22;18508;49.386;8.370;2023-05-27T03:57:44;10.90;1.00
31991;DHT22;18508;49.386;8.370;2023-05-27T04:00:12;10.90;1.00
31991;DHT22;18508;49.386;8.370;2023-05-27T04:02:43;10.90;1.00
31991;DHT22;18508;49.386;8.370;2023-05-27T04:05:11;10.90;1.00
31991;DHT22;18508;49.386;8.370;2023-05-27T04:07:39;10.90;1.00
31991;DHT22;18508;49.386;8.370;2023-05-27T04:10:08;10.90;1.00
31991;DHT22;18508;49.386;8.370;2023-05-27T04:12:40;10.90;1.00
31991;DHT22;18508;49.386;8.370;2023-05-27T04:15:09;10.90;1.00
31991;DHT22;18508;49.386;8.370;2023-05-27T04:17:37;10.90;1.00
31991;DHT22;18508;49.386;8.370;2023-05-27T04:20:06;10.80;1.00
31991;DHT22;18508;49.386;8.370;2023-05-27T04:22:38;10.90;1.00
31991;DHT22;18508;49.386;8.370;2023-05-27T04:25:06;11.00;1.00
31991;DHT22;18508;49.386;8.370;2023-05-27T04:27:35;11.00;1.00
31991;DHT22;18508;49.386;8.370;2023-05-27T04:30:06;11.00;1.00
31991;DHT22;18508;49.386;8.370;2023-05-27T04:32:36;11.00;1.00
31991;DHT22;18508;49.386;8.370;2023-05-27T04:35:07;11.00;1.00
31991;DHT22;18508;49.386;8.370;2023-05-27T04:37:37;11.10;1.00
31991;DHT22;18508;49.386;8.370;2023-05-27T04:40:08;11.10;1.00
31991;DHT22;18508;49.386;8.370;2023-05-27T04:42:36;11.10;1.00
31991;DHT22;18508;49.386;8.370;2023-05-27T04:45:08;11.20;1.00
31991;DHT22;18508;49.386;8.370;2023-05-27T04:47:37;11.20;1.00
31991;DHT22;18508;49.386;8.370;2023-05-27T04:50:08;11.20;1.00
31991;DHT22;18508;49.386;8.370;2023-05-27T04:52:37;11.30;1.00
31991;DHT22;18508;49.386;8.370;2023-05-27T04:55:09;11.30;1.00
31991;DHT22;18508;49.386;8.370;2023-05-27T05:00:12;11.40;1.00
31991;DHT22;18508;49.386;8.370;2023-05-27T05:02:50;11.50;1.00
31991;DHT22;18508;49.386;8.370;2023-05-27T05:05:28;11.50;1.00
31991;DHT22;18508;49.386;8.370;2023-05-27T05:07:56;11.60;1.00
31991;DHT22;18508;49.386;8.370;2023-05-27T05:10:25;11.70;1.00
31991;DHT22;18508;49.386;8.370;2023-05-27T05:12:54;11.80;1.00
31991;DHT22;18508;49.386;8.370;2023-05-27T05:15:24;11.80;1.00
31991;DHT22;18508;49.386;8.370;2023-05-27T05:17:52;11.90;1.00
31991;DHT22;18508;49.386;8.370;2023-05-27T05:20:23;11.90;1.00
31991;DHT22;18508;49.386;8.370;2023-05-27T05:22:52;12.00;1.00
31991;DHT22;18508;49.386;8.370;2023-05-27T05:25:20;12.10;99.90
31991;DHT22;18508;49.386;8.370;2023-05-27T05:27:48;12.20;99.90
31991;DHT22;18508;49.386;8.370;2023-05-27T05:30:16;12.30;99.90
31991;DHT22;18508;49.386;8.370;2023-05-27T05:32:45;12.30;99.90
31991;DHT22;18508;49.386;8.370;2023-05-27T05:35:13;12.50;99.90
31991;DHT22;18508;49.386;8.370;2023-05-27T05:37:42;12.50;99.90
31991;DHT22;18508;49.386;8.370;2023-05-27T05:40:11;12.60;99.90
31991;DHT22;18508;49.386;8.370;2023-05-27T05:42:39;12.70;99.90
31991;DHT22;18508;49.386;8.370;2023-05-27T05:45:08;12.90;99.90
31991;DHT22;18508;49.386;8.370;2023-05-27T05:47:36;13.00;99.90
31991;DHT22;18508;49.386;8.370;2023-05-27T05:50:07;13.10;99.90
31991;DHT22;18508;49.386;8.370;2023-05-27T05:52:35;13.10;99.90
31991;DHT22;18508;49.386;8.370;2023-05-27T05:55:04;13.10;99.90
31991;DHT22;18508;49.386;8.370;2023-05-27T05:57:34;13.10;99.90
31991;DHT22;18508;49.386;8.370;2023-05-27T06:00:03;13.20;99.90
31991;DHT22;18508;49.386;8.370;2023-05-27T06:02:32;13.20;99.90
31991;DHT22;18508;49.386;8.370;2023-05-27T06:05:00;13.20;99.90
31991;DHT22;18508;49.386;8.370;2023-05-27T06:07:29;13.30;99.90
31991;DHT22;18508;49.386;8.370;2023-05-27T06:09:58;13.40;99.90
31991;DHT22;18508;49.386;8.370;2023-05-27T06:12:26;13.50;99.90
31991;DHT22;18508;49.386;8.370;2023-05-27T06:14:54;13.60;99.90
31991;DHT22;18508;49.386;8.370;2023-05-27T06:17:22;13.60;99.90
31991;DHT22;18508;49.386;8.370;2023-05-27T06:19:51;13.70;99.90
31991;DHT22;18508;49.386;8.370;2023-05-27T06:22:19;13.90;99.90
31991;DHT22;18508;49.386;8.370;2023-05-27T06:24:49;13.90;71.80
31991;DHT22;18508;49.386;8.370;2023-05-27T06:27:17;14.00;78.30
31991;DHT22;18508;49.386;8.370;2023-05-27T06:29:46;14.10;11.00
31991;DHT22;18508;49.386;8.370;2023-05-27T06:32:14;14.20;23.70
31991;DHT22;18508;49.386;8.370;2023-05-27T06:34:42;14.30;1.00
31991;DHT22;18508;49.386;8.370;2023-05-27T06:37:10;14.40;1.00
31991;DHT22;18508;49.386;8.370;2023-05-27T06:39:38;14.50;1.00
31991;DHT22;18508;49.386;8.370;2023-05-27T06:42:08;14.60;1.00
31991;DHT22;18508;49.386;8.370;2023-05-27T06:44:36;14.70;1.00
31991;DHT22;18508;49.386;8.370;2023-05-27T06:47:04;14.90;1.00
31991;DHT22;18508;49.386;8.370;2023-05-27T06:49:33;15.00;1.00
31991;DHT22;18508;49.386;8.370;2023-05-27T06:52:01;15.10;1.00
31991;DHT22;18508;49.386;8.370;2023-05-27T06:54:29;15.10;1.00
31991;DHT22;18508;49.386;8.370;2023-05-27T06:56:57;15.20;1.00
31991;DHT22;18508;49.386;8.370;2023-05-27T06:59:26;15.40;1.00
31991;DHT22;18508;49.386;8.370;2023-05-27T07:01:55;15.50;1.00
31991;DHT22;18508;49.386;8.370;2023-05-27T07:04:24;15.50;99.90
31991;DHT22;18508;49.386;8.370;2023-05-27T07:06:52;15.70;99.90
31991;DHT22;18508;49.386;8.370;2023-05-27T07:09:20;15.70;99.90
31991;DHT22;18508;49.386;8.370;2023-05-27T07:11:48;15.80;99.90
31991;DHT22;18508;49.386;8.370;2023-05-27T07:14:16;15.80;99.90
31991;DHT22;18508;49.386;8.370;2023-05-27T07:16:46;16.00;99.90
31991;DHT22;18508;49.386;8.370;2023-05-27T07:19:14;16.10;99.90
31991;DHT22;18508;49.386;8.370;2023-05-27T07:21:42;16.20;99.90
31991;DHT22;18508;49.386;8.370;2023-05-27T07:24:10;16.40;99.90
31991;DHT22;18508;49.386;8.370;2023-05-27T07:26:38;16.50;99.90
31991;DHT22;18508;49.386;8.370;2023-05-27T07:29:08;16.70;99.90
31991;DHT22;18508;49.386;8.370;2023-05-27T07:31:37;16.80;99.90
31991;DHT22;18508;49.386;8.370;2023-05-27T07:34:06;16.80;99.90
31991;DHT22;18508;49.386;8.370;2023-05-27T07:36:35;16.70;99.90
31991;DHT22;18508;49.386;8.370;2023-05-27T07:39:03;16.70;99.90
31991;DHT22;18508;49.386;8.370;2023-05-27T07:41:31;16.90;99.90
31991;DHT22;18508;49.386;8.370;2023-05-27T07:43:59;17.00;99.90
31991;DHT22;18508;49.386;8.370;2023-05-27T07:46:28;17.10;99.90
31991;DHT22;18508;49.386;8.370;2023-05-27T07:48:57;17.00;99.90
31991;DHT22;18508;49.386;8.370;2023-05-27T07:51:26;17.20;99.90
31991;DHT22;18508;49.386;8.370;2023-05-27T07:53:55;17.40;99.90
31991;DHT22;18508;49.386;8.370;2023-05-27T07:58:52;17.60;99.90
31991;DHT22;18508;49.386;8.370;2023-05-27T08:01:21;17.80;1.00
31991;DHT22;18508;49.386;8.370;2023-05-27T08:03:49;17.90;1.00
31991;DHT22;18508;49.386;8.370;2023-05-27T08:06:17;18.10;62.90
31991;DHT22;18508;49.386;8.370;2023-05-27T08:08:47;18.30;1.00
31991;DHT22;18508;49.386;8.370;2023-05-27T08:11:15;18.20;99.90
31991;DHT22;18508;49.386;8.370;2023-05-27T08:13:44;18.40;1.00
31991;DHT22;18508;49.386;8.370;2023-05-27T08:16:12;18.50;1.00
31991;DHT22;18508;49.386;8.370;2023-05-27T08:18:40;18.60;1.00
31991;DHT22;18508;49.386;8.370;2023-05-27T08:21:08;18.60;1.00
31991;DHT22;18508;49.386;8.370;2023-05-27T08:23:36;18.50;1.00
31991;DHT22;18508;49.386;8.370;2023-05-27T08:26:06;18.60;1.00
31991;DHT22;18508;49.386;8.370;2023-05-27T08:28:34;18.60;1.00
31991;DHT22;18508;49.386;8.370;2023-05-27T08:31:03;18.70;1.00
31991;DHT22;18508;49.386;8.370;2023-05-27T08:33:31;18.90;99.90
31991;DHT22;18508;49.386;8.370;2023-05-27T08:35:59;18.80;1.00
31991;DHT22;18508;49.386;8.370;2023-05-27T08:38:27;19.00;1.00
31991;DHT22;18508;49.386;8.370;2023-05-27T08:40:56;19.20;52.90
31991;DHT22;18508;49.386;8.370;2023-05-27T08:43:25;19.10;99.90
31991;DHT22;18508;49.386;8.370;2023-05-27T08:45:53;19.20;1.00
31991;DHT22;18508;49.386;8.370;2023-05-27T08:48:24;19.30;99.90
31991;DHT22;18508;49.386;8.370;2023-05-27T08:50:52;19.50;1.00
31991;DHT22;18508;49.386;8.370;2023-05-27T08:53:22;19.70;1.00
31991;DHT22;18508;49.386;8.370;2023-05-27T08:55:51;19.50;99.90
31991;DHT22;18508;49.386;8.370;2023-05-27T08:58:22;19.50;99.90
31991;DHT22;18508;49.386;8.370;2023-05-27T09:00:52;19.50;1.00
31991;DHT22;18508;49.386;8.370;2023-05-27T09:03:20;19.70;1.00
31991;DHT22;18508;49.386;8.370;2023-05-27T09:05:49;19.80;99.90
31991;DHT22;18508;49.386;8.370;2023-05-27T09:08:17;20.10;99.90
31991;DHT22;18508;49.386;8.370;2023-05-27T09:10:45;20.10;1.00
31991;DHT22;18508;49.386;8.370;2023-05-27T09:13:24;20.30;44.60
31991;DHT22;18508;49.386;8.370;2023-05-27T09:15:59;20.30;1.00
31991;DHT22;18508;49.386;8.370;2023-05-27T09:18:28;20.40;1.00
31991;DHT22;18508;49.386;8.370;2023-05-27T09:20:57;20.40;99.90
31991;DHT22;18508;49.386;8.370;2023-05-27T09:23:25;20.40;99.90
31991;DHT22;18508;49.386;8.370;2023-05-27T09:25:53;20.50;99.90
31991;DHT22;18508;49.386;8.370;2023-05-27T09:28:22;20.60;2.70
31991;DHT22;18508;49.386;8.370;2023-05-27T09:31:00;20.60;1.00
31991;DHT22;18508;49.386;8.370;2023-05-27T09:33:31;20.50;99.90
31991;DHT22;18508;49.386;8.370;2023-05-27T09:35:59;20.60;1.00
31991;DHT22;18508;49.386;8.370;2023-05-27T09:38:28;20.70;1.00
31991;DHT22;18508;49.386;8.370;2023-05-27T09:40:57;20.90;99.90
31991;DHT22;18508;49.386;8.370;2023-05-27T09:43:25;21.10;20.40
31991;DHT22;18508;49.386;8.370;2023-05-27T09:45:57;21.10;1.00
31991;DHT22;18508;49.386;8.370;2023-05-27T09:48:29;21.30;99.90
31991;DHT22;18508;49.386;8.370;2023-05-27T09:50:57;21.20;1.00
31991;DHT22;18508;49.386;8.370;2023-05-27T09:53:27;21.10;99.90
31991;DHT22;18508;49.386;8.370;2023-05-27T09:55:56;21.30;1.00
31991;DHT22;18508;49.386;8.370;2023-05-27T09:58:25;21.30;99.90
31991;DHT22;18508;49.386;8.370;2023-05-27T10:00:55;21.60;99.90
31991;DHT22;18508;49.386;8.370;2023-05-27T10:03:25;21.80;1.00
31991;DHT22;18508;49.386;8.370;2023-05-27T10:05:56;21.90;99.90
31991;DHT22;18508;49.386;8.370;2023-05-27T10:08:24;21.70;1.00
31991;DHT22;18508;49.386;8.370;2023-05-27T10:10:54;21.90;1.00
31991;DHT22;18508;49.386;8.370;2023-05-27T10:13:24;21.90;99.90
31991;DHT22;18508;49.386;8.370;2023-05-27T10:15:52;21.90;57.70
31991;DHT22;18508;49.386;8.370;2023-05-27T10:18:25;22.10;99.90
31991;DHT22;18508;49.386;8.370;2023-05-27T10:20:56;22.30;1.00
31991;DHT22;18508;49.386;8.370;2023-05-27T10:23:25;22.50;46.20
31991;DHT22;18508;49.386;8.370;2023-05-27T10:25:55;22.40;48.80
31991;DHT22;18508;49.386;8.370;2023-05-27T10:28:27;22.50;99.90
31991;DHT22;18508;49.386;8.370;2023-05-27T10:31:03;22.30;99.90
31991;DHT22;18508;49.386;8.370;2023-05-27T10:33:35;22.50;1.00
31991;DHT22;18508;49.386;8.370;2023-05-27T10:36:17;22.50;99.90
31991;DHT22;18508;49.386;8.370;2023-05-27T10:38:55;22.70;99.90
31991;DHT22;18508;49.386;8.370;2023-05-27T10:41:23;22.80;36.90
31991;DHT22;18508;49.386;8.370;2023-05-27T10:43:54;23.00;99.90
31991;DHT22;18508;49.386;8.370;2023-05-27T10:46:23;22.90;99.90
31991;DHT22;18508;49.386;8.370;2023-05-27T10:48:52;23.00;99.90
31991;DHT22;18508;49.386;8.370;2023-05-27T10:51:31;23.10;99.90
31991;DHT22;18508;49.386;8.370;2023-05-27T10:54:03;22.80;1.00
31991;DHT22;18508;49.386;8.370;2023-05-27T10:56:51;23.20;99.90
31991;DHT22;18508;49.386;8.370;2023-05-27T10:59:21;22.90;99.90
31991;DHT22;18508;49.386;8.370;2023-05-27T11:01:51;23.30;99.90
31991;DHT22;18508;49.386;8.370;2023-05-27T11:04:20;23.20;99.90
31991;DHT22;18508;49.386;8.370;2023-05-27T11:07:00;23.30;99.90
31991;DHT22;18508;49.386;8.370;2023-05-27T11:09:30;23.70;99.90
31991;DHT22;18508;49.386;8.370;2023-05-27T11:12:02;23.90;99.90
31991;DHT22;18508;49.386;8.370;2023-05-27T11:14:30;23.90;99.90
31991;DHT22;18508;49.386;8.370;2023-05-27T11:16:58;24.10;99.90
31991;DHT22;18508;49.386;8.370;2023-05-27T11:19:27;23.90;99.90
31991;DHT22;18508;49.386;8.370;2023-05-27T11:21:55;23.60;1.00
31991;DHT22;18508;49.386;8.370;2023-05-27T11:24:24;23.90;99.90
31991;DHT22;18508;49.386;8.370;2023-05-27T11:26:52;24.00;74.40
31991;DHT22;18508;49.386;8.370;2023-05-27T11:29:20;24.10;1.00
31991;DHT22;18508;49.386;8.370;2023-05-27T11:31:48;23.90;1.00
31991;DHT22;18508;49.386;8.370;2023-05-27T11:34:17;23.90;99.90
31991;DHT22;18508;49.386;8.370;2023-05-27T11:36:49;24.00;99.90
31991;DHT22;18508;49.386;8.370;2023-05-27T11:39:17;24.00;99.90
31991;DHT22;18508;49.386;8.370;2023-05-27T11:41:51;23.90;99.90
31991;DHT22;18508;49.386;8.370;2023-05-27T11:44:21;24.00;1.00
31991;DHT22;18508;49.386;8.370;2023-05-27T11:46:58;24.10;1.00
31991;DHT22;18508;49.386;8.370;2023-05-27T11:49:29;24.30;5.30
31991;DHT22;18508;49.386;8.370;2023-05-27T11:51:57;24.30;1.00
31991;DHT22;18508;49.386;8.370;2023-05-27T11:54:26;24.60;1.00
31991;DHT22;18508;49.386;8.370;2023-05-27T11:56:57;24.70;1.00
31991;DHT22;18508;49.386;8.370;2023-05-27T11:59:27;24.60;99.90
31991;DHT22;18508;49.386;8.370;2023-05-27T12:01:55;24.80;1.00
31991;DHT22;18508;49.386;8.370;2023-05-27T12:04:23;24.80;1.00
31991;DHT22;18508;49.386;8.370;2023-05-27T12:06:52;24.80;99.90
31991;DHT22;18508;49.386;8.370;2023-05-27T12:09:20;25.10;49.30
31991;DHT22;18508;49.386;8.370;2023-05-27T12:11:48;25.00;1.00
31991;DHT22;18508;49.386;8.370;2023-05-27T12:14:17;25.10;1.00
31991;DHT22;18508;49.386;8.370;2023-05-27T12:16:46;25.00;99.90
31991;DHT22;18508;49.386;8.370;2023-05-27T12:19:14;25.20;1.00
31991;DHT22;18508;49.386;8.370;2023-05-27T12:21:42;25.30;1.00
31991;DHT22;18508;49.386;8.370;2023-05-27T12:24:10;25.60;1.00
31991;DHT22;18508;49.386;8.370;2023-05-27T12:26:38;25.70;99.90
31991;DHT22;18508;49.386;8.370;2023-05-27T12:29:07;25.80;99.90
31991;DHT22;18508;49.386;8.370;2023-05-27T12:31:37;25.70;1.00
31991;DHT22;18508;49.386;8.370;2023-05-27T12:34:05;25.70;99.90
31991;DHT22;18508;49.386;8.370;2023-05-27T12:36:33;25.70;1.00
31991;DHT22;18508;49.386;8.370;2023-05-27T12:39:01;25.90;88.30
31991;DHT22;18508;49.386;8.370;2023-05-27T12:41:29;26.30;99.90
31991;DHT22;18508;49.386;8.370;2023-05-27T12:43:58;26.30;99.90
31991;DHT22;18508;49.386;8.370;2023-05-27T12:46:26;26.20;99.90
31991;DHT22;18508;49.386;8.370;2023-05-27T12:48:55;26.30;1.00
31991;DHT22;18508;49.386;8.370;2023-05-27T12:51:24;26.50;1.00
31991;DHT22;18508;49.386;8.370;2023-05-27T12:53:52;26.50;1.00
31991;DHT22;18508;49.386;8.370;2023-05-27T12:56:20;26.70;1.00
31991;DHT22;18508;49.386;8.370;2023-05-27T12:58:48;26.90;1.00
31991;DHT22;18508;49.386;8.370;2023-05-27T13:01:16;27.10;99.90
31991;DHT22;18508;49.386;8.370;2023-05-27T13:03:44;26.90;1.00
31991;DHT22;18508;49.386;8.370;2023-05-27T13:06:15;26.90;1.00
31991;DHT22;18508;49.386;8.370;2023-05-27T13:08:43;27.00;1.00
31991;DHT22;18508;49.386;8.370;2023-05-27T13:11:11;27.00;99.90
31991;DHT22;18508;49.386;8.370;2023-05-27T13:13:39;27.70;99.90
31991;DHT22;18508;49.386;8.370;2023-05-27T13:16:07;27.80;99.90
31991;DHT22;18508;49.386;8.370;2023-05-27T13:18:35;27.40;99.90
31991;DHT22;18508;49.386;8.370;2023-05-27T13:21:04;27.40;48.50
31991;DHT22;18508;49.386;8.370;2023-05-27T13:23:35;27.60;1.00
31991;DHT22;18508;49.386;8.370;2023-05-27T13:26:03;27.70;1.00
31991;DHT22;18508;49.386;8.370;2023-05-27T13:28:32;27.70;99.90
31991;DHT22;18508;49.386;8.370;2023-05-27T13:30:59;27.90;1.00
31991;DHT22;18508;49.386;8.370;2023-05-27T13:33:28;28.10;99.90
31991;DHT22;18508;49.386;8.370;2023-05-27T13:35:57;28.50;99.90
31991;DHT22;18508;49.386;8.370;2023-05-27T13:38:25;29.10;99.90
31991;DHT22;18508;49.386;8.370;2023-05-27T13:40:55;29.40;1.00
31991;DHT22;18508;49.386;8.370;2023-05-27T13:43:26;29.30;1.00
31991;DHT22;18508;49.386;8.370;2023-05-27T13:45:54;29.50;1.00
31991;DHT22;18508;49.386;8.370;2023-05-27T13:48:22;29.90;1.00
31991;DHT22;18508;49.386;8.370;2023-05-27T13:50:50;30.70;1.00
31991;DHT22;18508;49.386;8.370;2023-05-27T13:53:18;30.90;99.90
31991;DHT22;18508;49.386;8.370;2023-05-27T13:55:46;30.90;99.90
31991;DHT22;18508;49.386;8.370;2023-05-27T13:58:17;31.10;1.00
31991;DHT22;18508;49.386;8.370;2023-05-27T14:00:45;30.60;1.00
31991;DHT22;18508;49.386;8.370;2023-05-27T14:03:13;30.70;1.00
31991;DHT22;18508;49.386;8.370;2023-05-27T14:05:41;31.10;1.00
31991;DHT22;18508;49.386;8.370;2023-05-27T14:08:09;31.30;1.00
31991;DHT22;18508;49.386;8.370;2023-05-27T14:10:37;31.40;1.00
31991;DHT22;18508;49.386;8.370;2023-05-27T14:13:05;31.60;1.00
31991;DHT22;18508;49.386;8.370;2023-05-27T14:15:35;32.10;1.00
31991;DHT22;18508;49.386;8.370;2023-05-27T14:18:04;31.80;1.00
31991;DHT22;18508;49.386;8.370;2023-05-27T14:20:33;31.60;1.00
31991;DHT22;18508;49.386;8.370;2023-05-27T14:23:02;32.00;1.00
31991;DHT22;18508;49.386;8.370;2023-05-27T14:25:31;32.50;1.00
31991;DHT22;18508;49.386;8.370;2023-05-27T14:27:59;32.40;1.00
31991;DHT22;18508;49.386;8.370;2023-05-27T14:30:30;31.90;1.00
31991;DHT22;18508;49.386;8.370;2023-05-27T14:33:04;32.50;1.00
31991;DHT22;18508;49.386;8.370;2023-05-27T14:35:34;32.40;1.00
31991;DHT22;18508;49.386;8.370;2023-05-27T14:38:02;33.10;1.00
31991;DHT22;18508;49.386;8.370;2023-05-27T14:40:30;33.60;1.00
31991;DHT22;18508;49.386;8.370;2023-05-27T14:42:59;33.20;1.00
31991;DHT22;18508;49.386;8.370;2023-05-27T14:45:27;32.40;1.00
31991;DHT22;18508;49.386;8.370;2023-05-27T14:47:55;32.50;1.00
31991;DHT22;18508;49.386;8.370;2023-05-27T14:50:25;32.60;1.00
31991;DHT22;18508;49.386;8.370;2023-05-27T14:52:53;32.20;1.00
31991;DHT22;18508;49.386;8.370;2023-05-27T14:55:22;32.40;1.00
31991;DHT22;18508;49.386;8.370;2023-05-27T14:57:50;32.50;1.00
31991;DHT22;18508;49.386;8.370;2023-05-27T15:00:19;32.70;1.00
31991;DHT22;18508;49.386;8.370;2023-05-27T15:02:47;32.90;1.00
31991;DHT22;18508;49.386;8.370;2023-05-27T15:05:15;33.20;1.00
31991;DHT22;18508;49.386;8.370;2023-05-27T15:07:45;33.90;1.00
31991;DHT22;18508;49.386;8.370;2023-05-27T15:10:13;33.20;1.00
31991;DHT22;18508;49.386;8.370;2023-05-27T15:12:42;34.00;1.00
31991;DHT22;18508;49.386;8.370;2023-05-27T15:15:12;34.10;1.00
31991;DHT22;18508;49.386;8.370;2023-05-27T15:17:41;33.50;1.00
31991;DHT22;18508;49.386;8.370;2023-05-27T15:20:12;33.40;1.00
31991;DHT22;18508;49.386;8.370;2023-05-27T15:22:40;33.60;1.00
31991;DHT22;18508;49.386;8.370;2023-05-27T15:25:09;33.90;1.00
31991;DHT22;18508;49.386;8.370;2023-05-27T15:27:37;33.80;1.00
31991;DHT22;18508;49.386;8.370;2023-05-27T15:30:06;33.90;1.00
31991;DHT22;18508;49.386;8.370;2023-05-27T15:32:36;33.20;1.00
31991;DHT22;18508;49.386;8.370;2023-05-27T15:35:05;32.60;1.00
31991;DHT22;18508;49.386;8.370;2023-05-27T15:37:34;33.20;1.00
31991;DHT22;18508;49.386;8.370;2023-05-27T15:40:03;33.60;1.00
31991;DHT22;18508;49.386;8.370;2023-05-27T15:42:33;33.30;1.00
31991;DHT22;18508;49.386;8.370;2023-05-27T15:45:01;33.20;1.00
31991;DHT22;18508;49.386;8.370;2023-05-27T15:47:29;33.00;1.00
31991;DHT22;18508;49.386;8.370;2023-05-27T15:49:57;32.40;1.00
31991;DHT22;18508;49.386;8.370;2023-05-27T15:52:25;32.60;1.00
31991;DHT22;18508;49.386;8.370;2023-05-27T15:54:54;33.00;1.00
31991;DHT22;18508;49.386;8.370;2023-05-27T15:57:22;32.80;1.00
31991;DHT22;18508;49.386;8.370;2023-05-27T15:59:52;33.00;1.00